Zografos, Greece
Current Conditions -  °F | °C
As of 5:50 PM on Thursday 23 Oct 2014 (Local Time) from LGTS Reporting Station
Scattered Clouds Scattered Clouds  
Wind Chill: 13°   Ceiling: Unl
Heat Index: 13°   Visibility: 6mi
Dew Point:   Wind: 9mph
Humidity: 67%   Direction: 360°N
Pressure: 29.59"   Gusts: NA
Location:  40.28°N, 23.25°E
Report Text: LGTS 231450Z 36008KT 9999 FEW012 SCT025 13/07 Q1002 RERA NOSIG
Loading
Personal Weather Stations






























Interactive Weather Map
Tropical Storm Tracking
New forecast layout! Learn more

10-Day Weather Forecast

Advertisements
Track Severe Weather on mobile